Time,TemperatureF,DewpointF,PressureIn,WindDirection,WindDirectionDegrees,WindSpeedMPH,WindSpeedGustMPH,Humidity,HourlyPrecipIn,Conditions,Clouds,dailyrainin,SolarRadiationWatts/m^2,SoftwareType,DateUTC
2015-03-05 00:10:00,74.8,70.0,30.10,ESE,109,4.0,10.0,85,0.00,,,0.00,0,weatherlink.com 1.10,2015-03-05 05:10:00,
2015-03-05 00:25:00,74.8,70.0,30.10,SE,128,5.0,8.0,85,0.00,,,0.00,0,weatherlink.com 1.10,2015-03-05 05:25:00,
2015-03-05 00:40:00,74.8,70.0,30.10,ESE,121,7.0,9.0,85,0.00,,,0.00,0,weatherlink.com 1.10,2015-03-05 05:40:00,
2015-03-05 00:55:00,75.0,70.0,30.09,SE,126,2.0,11.0,85,0.00,,,0.00,0,weatherlink.com 1.10,2015-03-05 05:55:00,
2015-03-05 01:10:00,75.1,70.0,30.09,SE,124,4.0,13.0,85,0.00,,,0.00,0,weatherlink.com 1.10,2015-03-05 06:10:00,
2015-03-05 01:25:00,75.1,70.0,30.08,SSE,148,3.0,7.0,85,0.00,,,0.00,0,weatherlink.com 1.10,2015-03-05 06:25:00,
2015-03-05 01:40:00,74.8,69.0,30.08,SSE,162,5.0,10.0,83,0.00,,,0.00,0,weatherlink.com 1.10,2015-03-05 06:40:00,
2015-03-05 01:55:00,74.8,69.0,30.07,ESE,112,7.0,10.0,83,0.00,,,0.00,0,weatherlink.com 1.10,2015-03-05 06:55:00,
2015-03-05 02:10:00,74.8,69.0,30.07,SE,131,2.0,11.0,83,0.00,,,0.00,0,weatherlink.com 1.10,2015-03-05 07:10:00,
2015-03-05 02:25:00,74.8,69.0,30.06,SSE,147,2.0,11.0,83,0.00,,,0.00,0,weatherlink.com 1.10,2015-03-05 07:25:00,
2015-03-05 02:40:00,74.6,69.0,30.06,SE,142,1.0,11.0,83,0.00,,,0.00,0,weatherlink.com 1.10,2015-03-05 07:40:00,
2015-03-05 02:55:00,74.5,69.0,30.05,SE,144,3.0,12.0,84,0.00,,,0.00,0,weatherlink.com 1.10,2015-03-05 07:55:00,
2015-03-05 03:10:00,74.3,69.0,30.05,SE,144,2.0,8.0,84,0.00,,,0.00,0,weatherlink.com 1.10,2015-03-05 08:10:00,
2015-03-05 03:25:00,74.1,69.0,30.06,ESE,121,4.0,10.0,84,0.00,,,0.00,0,weatherlink.com 1.10,2015-03-05 08:25:00,
2015-03-05 03:40:00,74.2,69.0,30.05,ESE,108,2.0,9.0,84,0.00,,,0.00,0,weatherlink.com 1.10,2015-03-05 08:40:00,
2015-03-05 03:55:00,74.2,69.0,30.05,SSE,167,3.0,10.0,83,0.00,,,0.00,0,weatherlink.com 1.10,2015-03-05 08:55:00,
2015-03-05 04:10:00,74.0,69.0,30.05,South,184,1.0,8.0,84,0.00,,,0.00,0,weatherlink.com 1.10,2015-03-05 09:10:00,
2015-03-05 04:25:00,74.0,69.0,30.05,SE,140,3.0,10.0,84,0.00,,,0.00,0,weatherlink.com 1.10,2015-03-05 09:25:00,
2015-03-05 04:40:00,74.0,69.0,30.06,ESE,115,1.0,7.0,84,0.00,,,0.00,0,weatherlink.com 1.10,2015-03-05 09:40:00,
2015-03-05 04:55:00,73.8,69.0,30.06,SE,142,3.0,7.0,84,0.00,,,0.00,0,weatherlink.com 1.10,2015-03-05 09:55:00,
2015-03-05 05:10:00,73.7,69.0,30.07,SSE,148,1.0,8.0,84,0.00,,,0.00,0,weatherlink.com 1.10,2015-03-05 10:10:00,
2015-03-05 05:25:00,73.7,69.0,30.07,SE,146,1.0,5.0,84,0.00,,,0.00,0,weatherlink.com 1.10,2015-03-05 10:25:00,
2015-03-05 05:40:00,73.9,69.0,30.07,SE,140,2.0,8.0,84,0.00,,,0.00,0,weatherlink.com 1.10,2015-03-05 10:40:00,
2015-03-05 05:55:00,73.9,69.0,30.06,ESE,115,2.0,7.0,85,0.00,,,0.00,0,weatherlink.com 1.10,2015-03-05 10:55:00,
2015-03-05 06:10:00,74.0,69.0,30.07,South,177,2.0,8.0,85,0.00,,,0.00,0,weatherlink.com 1.10,2015-03-05 11:10:00,
2015-03-05 06:26:00,74.2,70.0,30.07,SE,138,4.0,8.0,85,0.00,,,0.00,0,weatherlink.com 1.10,2015-03-05 11:26:00,
2015-03-05 06:40:00,74.2,70.0,30.08,SE,142,4.0,10.0,85,0.00,,,0.00,5,weatherlink.com 1.10,2015-03-05 11:40:00,
2015-03-05 06:56:00,74.2,70.0,30.08,SE,145,4.0,7.0,85,0.00,,,0.00,28,weatherlink.com 1.10,2015-03-05 11:56:00,
2015-03-05 07:11:00,74.5,70.0,30.09,SE,145,1.0,7.0,85,0.00,,,0.00,49,weatherlink.com 1.10,2015-03-05 12:11:00,
2015-03-05 07:26:00,74.9,70.0,30.09,SSE,158,1.0,8.0,85,0.00,,,0.00,65,weatherlink.com 1.10,2015-03-05 12:26:00,
2015-03-05 07:41:00,75.5,70.0,30.10,South,173,5.0,9.0,84,0.00,,,0.00,179,weatherlink.com 1.10,2015-03-05 12:41:00,
2015-03-05 07:56:00,76.9,71.0,30.10,SE,124,3.0,9.0,83,0.00,,,0.00,227,weatherlink.com 1.10,2015-03-05 12:56:00,
2015-03-05 08:11:00,77.6,71.0,30.11,SSE,157,3.0,8.0,81,0.00,,,0.00,308,weatherlink.com 1.10,2015-03-05 13:11:00,
2015-03-05 08:26:00,77.8,72.0,30.11,ESE,122,7.0,14.0,81,0.00,,,0.00,413,weatherlink.com 1.10,2015-03-05 13:26:00,
2015-03-05 08:41:00,78.2,72.0,30.11,ESE,115,6.0,14.0,80,0.00,,,0.00,513,weatherlink.com 1.10,2015-03-05 13:41:00,
2015-03-05 08:56:00,79.8,72.0,30.12,SE,136,8.0,11.0,77,0.00,,,0.00,552,weatherlink.com 1.10,2015-03-05 13:56:00,
2015-03-05 09:11:00,79.9,72.0,30.12,SE,126,5.0,8.0,77,0.00,,,0.00,671,weatherlink.com 1.10,2015-03-05 14:11:00,
2015-03-05 09:26:00,80.0,72.0,30.12,South,179,5.0,10.0,77,0.00,,,0.00,350,weatherlink.com 1.10,2015-03-05 14:26:00,
2015-03-05 09:41:00,79.7,72.0,30.13,South,182,3.0,14.0,76,0.00,,,0.00,387,weatherlink.com 1.10,2015-03-05 14:41:00,
2015-03-05 09:56:00,79.9,72.0,30.13,SSE,154,3.0,12.0,77,0.00,,,0.00,882,weatherlink.com 1.10,2015-03-05 14:56:00,
2015-03-05 10:11:00,80.4,72.0,30.13,South,175,3.0,10.0,76,0.00,,,0.00,283,weatherlink.com 1.10,2015-03-05 15:11:00,
2015-03-05 10:26:00,80.2,72.0,30.13,SE,142,10.0,13.0,77,0.00,,,0.00,937,weatherlink.com 1.10,2015-03-05 15:26:00,
2015-03-05 10:41:00,80.9,72.0,30.14,SSE,152,7.0,9.0,75,0.00,,,0.00,271,weatherlink.com 1.10,2015-03-05 15:41:00,
2015-03-05 10:57:00,81.2,72.0,30.13,SE,138,4.0,12.0,74,0.00,,,0.00,506,weatherlink.com 1.10,2015-03-05 15:57:00,
2015-03-05 11:11:00,82.9,73.0,30.13,SSE,150,3.0,10.0,72,0.00,,,0.00,860,weatherlink.com 1.10,2015-03-05 16:11:00,
2015-03-05 11:26:00,81.7,73.0,30.13,ESE,117,10.0,14.0,74,0.00,,,0.00,213,weatherlink.com 1.10,2015-03-05 16:26:00,
2015-03-05 11:41:00,82.3,72.0,30.13,SE,145,0.0,11.0,72,0.00,,,0.00,1013,weatherlink.com 1.10,2015-03-05 16:41:00,